Time;durP1;ratioP1;P1;durP2;ratioP2;P2;SDS_P1;SDS_P2;PMS_P1;PMS_P2;Temp;Humidity;BMP_temperature;BMP_pressure;BME280_temperature;BME280_humidity;BME280_pressure;Samples;Min_cycle;Max_cycle;Signal;HPM_P1;HPM_P2
2022/11/10 00:01:56;;;;;;;5.90;1.60;;;10.70;99.90;;;;;;6155773;23;20204;-43
2022/11/10 00:04:22;;;;;;;12.70;1.83;;;10.70;99.90;;;;;;6156077;23;20153;-43
2022/11/10 00:06:48;;;;;;;9.00;1.70;;;10.60;99.90;;;;;;6155955;23;20200;-44
2022/11/10 00:09:14;;;;;;;10.57;1.93;;;10.60;99.90;;;;;;6155667;23;20230;-45
2022/11/10 00:11:40;;;;;;;7.50;1.60;;;10.60;99.90;;;;;;6155679;23;20588;-42
2022/11/10 00:17:05;;;;;;;7.30;1.73;;;10.50;99.90;;;;;;6157580;23;20199;-43
2022/11/10 00:19:32;;;;;;;4.93;1.57;;;10.50;99.90;;;;;;6157734;23;20134;-43
2022/11/10 00:21:59;;;;;;;8.20;2.00;;;10.50;99.90;;;;;;6158171;23;20149;-43
2022/11/10 00:24:25;;;;;;;10.00;2.20;;;10.40;99.90;;;;;;6157955;23;20152;-45
2022/11/10 00:26:50;;;;;;;7.87;1.83;;;10.40;99.90;;;;;;6158004;23;20161;-50
2022/11/10 00:29:16;;;;;;;4.67;1.57;;;10.40;99.90;;;;;;6157575;23;20181;-50
2022/11/10 00:31:42;;;;;;;15.50;2.37;;;10.40;99.90;;;;;;6157564;23;20153;-50
2022/11/10 00:34:14;;;;;;;13.30;1.73;;;10.30;99.90;;;;;;6157611;23;20219;-48
2022/11/10 00:36:40;;;;;;;11.83;1.90;;;10.30;99.90;;;;;;6157576;23;20146;-48
2022/11/10 00:39:06;;;;;;;9.20;2.17;;;10.30;99.90;;;;;;6132136;23;20260;-48
2022/11/10 00:41:31;;;;;;;11.83;1.90;;;10.20;99.90;;;;;;6157644;23;20184;-48
2022/11/10 00:43:57;;;;;;;4.20;1.73;;;10.20;99.90;;;;;;6157378;23;20164;-49
2022/11/10 00:46:23;;;;;;;9.23;2.00;;;10.20;99.90;;;;;;6158016;23;20485;-48
2022/11/10 00:48:48;;;;;;;10.73;2.03;;;10.20;99.90;;;;;;6157541;23;20177;-48
2022/11/10 00:51:25;;;;;;;7.17;1.70;;;10.20;99.90;;;;;;6157339;23;20157;-51
2022/11/10 00:53:52;;;;;;;6.60;1.80;;;10.10;99.90;;;;;;6157351;23;20181;-51
2022/11/10 00:56:20;;;;;;;6.70;1.80;;;10.10;99.90;;;;;;6158100;23;20256;-50
2022/11/10 00:58:46;;;;;;;11.07;2.90;;;10.10;99.90;;;;;;6131085;23;20177;-49
2022/11/10 01:01:12;;;;;;;7.40;1.63;;;10.10;99.90;;;;;;6157195;23;20480;-50
2022/11/10 01:03:38;;;;;;;13.57;2.43;;;10.10;99.90;;;;;;6157439;23;20171;-48
2022/11/10 01:06:13;;;;;;;8.07;2.00;;;10.10;99.90;;;;;;6131175;23;20162;-50
2022/11/10 01:08:40;;;;;;;7.47;2.10;;;10.10;99.90;;;;;;6157086;23;20528;-47
2022/11/10 01:11:16;;;;;;;10.40;2.13;;;10.10;99.90;;;;;;6157081;23;20546;-49
2022/11/10 01:13:42;;;;;;;12.90;2.27;;;10.10;99.90;;;;;;6157230;23;20234;-50
2022/11/10 01:16:15;;;;;;;8.40;2.00;;;10.00;99.90;;;;;;6157361;23;20164;-50
2022/11/10 01:18:41;;;;;;;9.07;2.37;;;10.00;99.90;;;;;;6157398;23;20547;-49
2022/11/10 01:21:08;;;;;;;11.00;2.30;;;9.90;99.90;;;;;;6157332;23;20187;-49
2022/11/10 01:23:34;;;;;;;10.30;2.10;;;9.90;99.90;;;;;;6157058;23;20158;-48
2022/11/10 01:26:05;;;;;;;8.97;2.30;;;9.90;99.90;;;;;;6156722;23;20160;-50
2022/11/10 01:28:31;;;;;;;9.60;1.63;;;9.90;99.90;;;;;;6156945;23;20259;-50
2022/11/10 01:31:08;;;;;;;13.70;2.07;;;9.90;99.90;;;;;;6157272;23;20213;-47
2022/11/10 01:33:34;;;;;;;5.00;1.73;;;9.90;99.90;;;;;;6157194;23;20184;-48
2022/11/10 01:36:00;;;;;;;12.33;2.03;;;9.90;99.90;;;;;;6156877;23;20181;-48
2022/11/10 01:38:28;;;;;;;7.67;2.03;;;9.80;99.90;;;;;;6130664;23;20208;-48
2022/11/10 01:40:54;;;;;;;6.97;1.87;;;9.80;99.90;;;;;;6156785;23;20164;-49
2022/11/10 01:43:20;;;;;;;7.93;1.80;;;9.80;99.90;;;;;;6156850;23;20535;-48
2022/11/10 01:45:59;;;;;;;5.47;1.47;;;9.80;99.90;;;;;;6157415;23;20159;-51
2022/11/10 01:48:49;;;;;;;6.87;1.60;;;9.80;99.90;;;;;;6156636;23;20653;-49
2022/11/10 01:51:24;;;;;;;6.73;1.67;;;9.80;99.90;;;;;;6156718;23;20586;-48
2022/11/10 01:53:55;;;;;;;6.83;1.67;;;9.80;99.90;;;;;;6156645;23;20185;-49
2022/11/10 01:56:22;;;;;;;6.47;1.30;;;9.80;99.90;;;;;;6156721;23;20154;-49
2022/11/10 01:58:53;;;;;;;6.53;1.97;;;9.80;99.90;;;;;;6156624;23;20236;-50
2022/11/10 02:01:18;;;;;;;11.03;1.97;;;9.80;99.90;;;;;;6157033;23;20152;-48
2022/11/10 02:03:47;;;;;;;10.77;2.03;;;9.80;99.90;;;;;;6156566;23;20600;-49
2022/11/10 02:06:14;;;;;;;10.50;1.93;;;9.80;99.90;;;;;;6156848;23;20179;-49
2022/11/10 02:08:41;;;;;;;9.07;2.13;;;9.80;99.90;;;;;;6156760;23;20545;-49
2022/11/10 02:11:06;;;;;;;7.00;1.97;;;9.80;99.90;;;;;;6156552;23;20140;-48
2022/11/10 02:13:32;;;;;;;9.90;1.90;;;9.70;99.90;;;;;;6156465;23;20682;-50
2022/11/10 02:15:57;;;;;;;7.60;1.87;;;9.70;99.90;;;;;;6156777;23;20155;-50
2022/11/10 02:18:23;;;;;;;9.03;2.50;;;9.70;99.90;;;;;;6156749;23;20173;-49
2022/11/10 02:20:49;;;;;;;13.57;2.10;;;9.60;99.90;;;;;;6156465;23;20150;-49
2022/11/10 02:23:35;;;;;;;18.43;2.10;;;9.60;99.90;;;;;;6156446;23;20240;-49
2022/11/10 02:26:03;;;;;;;10.83;1.87;;;9.50;99.90;;;;;;6136234;23;20168;-50
2022/11/10 02:28:33;;;;;;;9.50;1.80;;;9.50;99.90;;;;;;6156228;23;20184;-50
2022/11/10 02:30:59;;;;;;;9.97;1.97;;;9.50;99.90;;;;;;6156733;23;20250;-50
2022/11/10 02:33:24;;;;;;;14.70;2.17;;;9.40;99.90;;;;;;6156346;23;20182;-48
2022/11/10 02:35:50;;;;;;;10.00;1.97;;;9.40;99.90;;;;;;6156189;23;20242;-49
2022/11/10 02:38:16;;;;;;;12.27;2.30;;;9.40;99.90;;;;;;6156165;23;20174;-49
2022/11/10 02:40:41;;;;;;;10.53;1.90;;;9.40;99.90;;;;;;6156550;23;20165;-50
2022/11/10 02:43:10;;;;;;;9.23;2.17;;;9.30;99.90;;;;;;6156665;23;20619;-46
2022/11/10 02:45:40;;;;;;;10.90;1.93;;;9.30;99.90;;;;;;6157033;23;20465;-46
2022/11/10 02:48:07;;;;;;;7.87;1.40;;;9.30;99.90;;;;;;6156334;23;20177;-48
2022/11/10 02:50:33;;;;;;;9.43;1.70;;;9.30;99.90;;;;;;6157095;23;20240;-49
2022/11/10 02:52:58;;;;;;;8.77;1.63;;;9.30;99.90;;;;;;6156669;23;20205;-48
2022/11/10 02:55:24;;;;;;;14.37;2.17;;;9.20;99.90;;;;;;6156049;23;20610;-47
2022/11/10 02:57:49;;;;;;;9.83;2.23;;;9.20;99.90;;;;;;6156171;23;20173;-49
2022/11/10 03:00:15;;;;;;;8.37;1.93;;;9.20;99.90;;;;;;6156162;23;20216;-50
2022/11/10 03:02:41;;;;;;;7.90;1.67;;;9.20;99.90;;;;;;6156148;23;20163;-49
2022/11/10 03:05:06;;;;;;;11.67;1.57;;;9.10;99.90;;;;;;6156064;23;20192;-46
2022/11/10 03:07:32;;;;;;;13.70;2.13;;;9.20;99.90;;;;;;6156089;23;20174;-49
2022/11/10 03:09:57;;;;;;;11.37;2.03;;;9.10;99.90;;;;;;6156030;23;20165;-48
2022/11/10 03:12:23;;;;;;;10.53;3.17;;;9.10;99.90;;;;;;6156283;23;20260;-49
2022/11/10 03:14:48;;;;;;;10.77;2.13;;;9.10;99.90;;;;;;6156028;23;20154;-49
2022/11/10 03:17:14;;;;;;;9.77;2.20;;;9.10;99.90;;;;;;6156250;23;20161;-47
2022/11/10 03:19:39;;;;;;;12.00;2.57;;;9.10;99.90;;;;;;6156050;23;20250;-47
2022/11/10 03:22:05;;;;;;;13.57;2.07;;;9.00;99.90;;;;;;6156020;23;20209;-47
2022/11/10 03:24:31;;;;;;;9.17;2.00;;;9.00;99.90;;;;;;6129901;23;20208;-48
2022/11/10 03:26:56;;;;;;;10.60;1.83;;;9.00;99.90;;;;;;6155940;23;20618;-49
2022/11/10 03:29:22;;;;;;;6.07;1.60;;;9.00;99.90;;;;;;6156500;23;20506;-49
2022/11/10 03:31:47;;;;;;;9.60;1.97;;;9.00;99.90;;;;;;6156602;23;20490;-48
2022/11/10 03:34:13;;;;;;;11.63;1.93;;;9.00;99.90;;;;;;6156099;23;20258;-48
2022/11/10 03:36:38;;;;;;;12.27;2.20;;;8.90;99.90;;;;;;6155904;23;20209;-49
2022/11/10 03:39:04;;;;;;;7.63;2.20;;;9.00;99.90;;;;;;6155913;23;20188;-46
2022/11/10 03:41:30;;;;;;;8.60;1.47;;;8.90;99.90;;;;;;6156198;23;20149;-47
2022/11/10 03:43:56;;;;;;;12.73;2.30;;;8.90;99.90;;;;;;6155867;23;20166;-49
2022/11/10 03:46:22;;;;;;;8.40;2.17;;;9.00;99.90;;;;;;6156181;23;20509;-48
2022/11/10 03:48:47;;;;;;;8.40;2.20;;;8.90;99.90;;;;;;6156031;23;20186;-46
2022/11/10 03:51:13;;;;;;;9.23;2.10;;;8.90;99.90;;;;;;6157609;23;20229;-49
2022/11/10 03:53:38;;;;;;;7.00;1.80;;;8.90;99.90;;;;;;6157747;23;20178;-49
2022/11/10 03:56:05;;;;;;;8.00;1.53;;;8.90;99.90;;;;;;6157697;23;20248;-50
2022/11/10 03:58:31;;;;;;;7.13;2.07;;;8.90;99.90;;;;;;6157993;23;20504;-49
2022/11/10 04:00:57;;;;;;;10.27;1.93;;;9.00;99.90;;;;;;6158087;23;20161;-49
2022/11/10 04:03:23;;;;;;;9.13;1.40;;;8.90;99.90;;;;;;6131689;23;20167;-47
2022/11/10 04:15:40;;;;;;;10.07;2.20;;;8.90;99.90;;;;;;6158014;23;20149;-48
2022/11/10 04:16:47;;;;;;;8.63;2.03;;;8.90;99.90;;;;;;6157514;23;20185;-48
2022/11/10 04:19:12;;;;;;;8.30;1.50;;;8.90;99.90;;;;;;6157820;23;20629;-49
2022/11/10 04:21:38;;;;;;;6.53;1.93;;;8.90;99.90;;;;;;6157673;23;20554;-48
2022/11/10 04:24:04;;;;;;;15.07;1.73;;;8.90;99.90;;;;;;6157564;23;20154;-48
2022/11/10 04:26:29;;;;;;;8.53;2.10;;;8.90;99.90;;;;;;6157530;23;20157;-49
2022/11/10 04:28:57;;;;;;;11.40;2.00;;;8.90;99.90;;;;;;6157525;23;20185;-48
2022/11/10 04:31:25;;;;;;;6.07;1.90;;;8.90;99.90;;;;;;6158709;23;20172;-49
2022/11/10 04:33:51;;;;;;;11.73;2.33;;;8.90;99.90;;;;;;6157330;23;20638;-49
2022/11/10 04:36:19;;;;;;;8.77;2.17;;;8.80;99.90;;;;;;6157336;23;20165;-48
2022/11/10 04:38:45;;;;;;;9.30;1.93;;;8.90;99.90;;;;;;6157340;23;20209;-49
2022/11/10 04:41:11;;;;;;;16.33;2.50;;;8.80;99.90;;;;;;6157479;23;20157;-48
2022/11/10 04:43:37;;;;;;;10.87;1.80;;;8.80;99.90;;;;;;6157328;23;20495;-48
2022/11/10 04:46:04;;;;;;;10.00;2.40;;;8.80;99.90;;;;;;6157617;23;20164;-49
2022/11/10 04:48:30;;;;;;;9.23;1.80;;;8.80;99.90;;;;;;6157577;23;20257;-47
2022/11/10 04:50:57;;;;;;;10.10;1.80;;;8.80;99.90;;;;;;6157217;23;20171;-49
2022/11/10 04:53:24;;;;;;;7.23;2.03;;;8.70;99.90;;;;;;6131151;23;20238;-49
2022/11/10 04:55:50;;;;;;;13.30;2.10;;;8.80;99.90;;;;;;6157125;23;20172;-49
2022/11/10 04:58:15;;;;;;;13.90;2.20;;;8.80;99.90;;;;;;6157145;23;20571;-49
2022/11/10 05:00:41;;;;;;;9.20;2.03;;;8.80;99.90;;;;;;6157289;23;20209;-49
2022/11/10 05:03:09;;;;;;;10.83;1.90;;;8.80;99.90;;;;;;6156943;23;20156;-48
2022/11/10 05:05:35;;;;;;;7.63;2.23;;;8.80;99.90;;;;;;6155565;23;20600;-47
2022/11/10 05:08:01;;;;;;;8.63;2.03;;;8.80;99.90;;;;;;6157688;23;20178;-48
2022/11/10 05:10:27;;;;;;;8.67;1.90;;;8.80;99.90;;;;;;6157085;23;20159;-48
2022/11/10 05:12:57;;;;;;;14.03;2.40;;;8.80;99.90;;;;;;6157150;23;20173;-49
2022/11/10 05:15:23;;;;;;;13.87;2.17;;;8.80;99.90;;;;;;6157773;23;20166;-47
2022/11/10 05:17:50;;;;;;;9.13;2.13;;;8.80;99.90;;;;;;6157138;23;20180;-50
2022/11/10 05:20:17;;;;;;;7.93;1.80;;;8.80;99.90;;;;;;6156966;23;20154;-48
2022/11/10 05:22:45;;;;;;;11.47;2.60;;;8.80;99.90;;;;;;6157004;23;20649;-48
2022/11/10 05:25:11;;;;;;;12.30;2.87;;;8.80;99.90;;;;;;6156893;23;20160;-45
2022/11/10 05:27:36;;;;;;;10.97;4.33;;;8.80;99.90;;;;;;6155264;23;20627;-44
2022/11/10 05:30:03;;;;;;;10.47;4.97;;;8.70;99.90;;;;;;6130725;23;20198;-42
2022/11/10 05:32:28;;;;;;;13.17;4.43;;;8.70;99.90;;;;;;6156683;23;20620;-42
2022/11/10 05:34:54;;;;;;;9.63;2.20;;;8.70;99.90;;;;;;6157177;23;20207;-44
2022/11/10 05:37:19;;;;;;;7.23;2.07;;;8.70;99.90;;;;;;6157031;23;20159;-42
2022/11/10 05:39:46;;;;;;;14.93;3.07;;;8.60;99.90;;;;;;6157064;23;20266;-42
2022/11/10 05:42:11;;;;;;;10.70;2.70;;;8.60;99.90;;;;;;6156952;23;20190;-40
2022/11/10 05:44:37;;;;;;;10.37;2.60;;;8.60;99.90;;;;;;6156744;23;20162;-44
2022/11/10 05:47:03;;;;;;;9.23;2.37;;;8.50;99.90;;;;;;6156604;23;20158;-43
2022/11/10 05:49:28;;;;;;;8.33;2.07;;;8.50;99.90;;;;;;6156899;23;20157;-45
2022/11/10 05:51:54;;;;;;;9.93;2.10;;;8.50;99.90;;;;;;6156726;23;20186;-43
2022/11/10 05:54:19;;;;;;;5.93;1.67;;;8.50;99.90;;;;;;6156723;23;20212;-44
2022/11/10 05:56:45;;;;;;;10.37;1.90;;;8.50;99.90;;;;;;6156868;23;20458;-42
2022/11/10 05:59:10;;;;;;;12.20;2.40;;;8.50;99.90;;;;;;6156585;23;20538;-45
2022/11/10 06:01:36;;;;;;;10.60;2.27;;;8.40;99.90;;;;;;6130458;23;20639;-42
2022/11/10 06:04:01;;;;;;;8.10;1.73;;;8.40;99.90;;;;;;6156610;23;20605;-43
2022/11/10 06:06:27;;;;;;;13.57;2.03;;;8.40;99.90;;;;;;6156580;23;20330;-42
2022/11/10 06:08:52;;;;;;;9.67;2.27;;;8.40;99.90;;;;;;6156374;23;20188;-43
2022/11/10 06:11:19;;;;;;;10.67;1.90;;;8.50;99.90;;;;;;6156782;23;20162;-46
2022/11/10 06:13:44;;;;;;;9.80;1.63;;;8.40;99.90;;;;;;6156641;23;20508;-44
2022/11/10 06:16:10;;;;;;;15.10;2.37;;;8.40;99.90;;;;;;6156435;23;20232;-45
2022/11/10 06:18:35;;;;;;;10.10;2.50;;;8.40;99.90;;;;;;6130312;23;20261;-44
2022/11/10 06:21:01;;;;;;;12.53;1.90;;;8.40;99.90;;;;;;6156361;23;20151;-43
2022/11/10 06:23:27;;;;;;;12.90;1.77;;;8.40;99.90;;;;;;6156734;23;20187;-45
2022/11/10 06:25:52;;;;;;;9.70;1.87;;;8.40;99.90;;;;;;6156717;23;20473;-44
2022/11/10 06:28:18;;;;;;;10.13;2.30;;;8.40;99.90;;;;;;6130552;23;20523;-42
2022/11/10 06:30:43;;;;;;;9.60;2.00;;;8.40;99.90;;;;;;6156329;23;20699;-44
2022/11/10 06:33:09;;;;;;;10.07;1.80;;;8.40;99.90;;;;;;6156243;23;20201;-45
2022/11/10 06:35:34;;;;;;;6.03;1.73;;;8.40;99.90;;;;;;6156235;23;20595;-45
2022/11/10 06:38:02;;;;;;;14.93;2.23;;;8.40;99.90;;;;;;6156245;23;20174;-42
2022/11/10 06:40:29;;;;;;;8.17;2.03;;;8.40;99.90;;;;;;6156243;23;20614;-45
2022/11/10 06:42:55;;;;;;;12.23;2.37;;;8.40;99.90;;;;;;6156249;23;20158;-43
2022/11/10 06:45:21;;;;;;;10.33;1.70;;;8.40;99.90;;;;;;6156511;23;20158;-45
2022/11/10 06:47:47;;;;;;;6.97;1.50;;;8.40;99.90;;;;;;6154580;23;20177;-44
2022/11/10 06:50:13;;;;;;;9.03;1.77;;;8.40;99.90;;;;;;6156421;23;20622;-44
2022/11/10 06:52:38;;;;;;;14.60;2.23;;;8.30;99.90;;;;;;6156424;23;20264;-44
2022/11/10 06:55:04;;;;;;;11.03;2.47;;;8.40;99.90;;;;;;6129889;23;20174;-44
2022/11/10 06:57:37;;;;;;;12.03;1.90;;;8.40;99.90;;;;;;6154572;23;20204;-45
2022/11/10 07:00:03;;;;;;;8.60;2.50;;;8.40;99.90;;;;;;6156483;23;20516;-44
2022/11/10 07:02:29;;;;;;;11.87;1.97;;;8.40;99.90;;;;;;6156470;23;20209;-44
2022/11/10 07:04:55;;;;;;;10.07;1.80;;;8.40;99.90;;;;;;6156091;23;20166;-45
2022/11/10 07:07:20;;;;;;;10.33;1.93;;;8.40;99.90;;;;;;6155933;23;20172;-44
2022/11/10 07:09:46;;;;;;;11.60;2.20;;;8.40;99.90;;;;;;6156068;23;20166;-45
2022/11/10 07:12:11;;;;;;;15.83;2.40;;;8.40;99.90;;;;;;6156277;23;20682;-44
2022/11/10 07:14:37;;;;;;;11.23;2.23;;;8.50;99.90;;;;;;6156518;23;20483;-45
2022/11/10 07:17:02;;;;;;;14.63;2.37;;;8.50;99.90;;;;;;6155965;23;20159;-45
2022/11/10 07:19:28;;;;;;;4.93;1.80;;;8.50;99.90;;;;;;6129991;23;20162;-47
2022/11/10 07:21:54;;;;;;;11.63;2.40;;;8.50;99.90;;;;;;6155968;23;20154;-48
2022/11/10 07:24:19;;;;;;;11.03;2.43;;;8.60;99.90;;;;;;6155835;23;20142;-48
2022/11/10 07:26:45;;;;;;;10.63;2.40;;;8.60;99.90;;;;;;6156218;23;20597;-48
2022/11/10 07:29:10;;;;;;;12.23;2.60;;;8.70;99.90;;;;;;6157132;23;20248;-48
2022/11/10 07:31:36;;;;;;;15.07;2.40;;;8.70;99.90;;;;;;6155893;23;20598;-50
2022/11/10 07:34:01;;;;;;;13.77;2.63;;;8.70;99.90;;;;;;6155792;23;20240;-49
2022/11/10 07:36:28;;;;;;;10.77;2.13;;;8.80;99.90;;;;;;6155847;23;20149;-47
2022/11/10 07:38:54;;;;;;;9.60;2.10;;;8.80;99.90;;;;;;6156088;23;20200;-48
2022/11/10 07:41:20;;;;;;;9.97;1.90;;;8.90;99.90;;;;;;6155873;23;20182;-50
2022/11/10 07:43:45;;;;;;;15.00;2.70;;;8.90;99.90;;;;;;6155892;23;20619;-48
2022/11/10 07:46:11;;;;;;;8.87;2.43;;;8.90;99.90;;;;;;6155882;23;20154;-48
2022/11/10 07:48:37;;;;;;;9.00;1.80;;;9.00;99.90;;;;;;6155907;23;20695;-47
2022/11/10 07:51:02;;;;;;;12.60;2.17;;;9.00;99.90;;;;;;6156276;23;20232;-48
2022/11/10 07:53:28;;;;;;;12.37;2.80;;;9.00;99.90;;;;;;6155976;23;20217;-49
2022/11/10 07:55:54;;;;;;;12.47;2.47;;;9.10;99.90;;;;;;6155768;23;20503;-48
2022/11/10 07:58:19;;;;;;;11.23;1.87;;;9.10;99.90;;;;;;6155617;23;20505;-47
2022/11/10 08:00:46;;;;;;;11.40;2.53;;;9.10;99.90;;;;;;6156058;23;20229;-47
2022/11/10 08:03:18;;;;;;;12.03;2.10;;;9.20;99.90;;;;;;6155660;23;20208;-48
2022/11/10 08:05:44;;;;;;;8.80;1.80;;;9.20;99.90;;;;;;6156129;23;20147;-49
2022/11/10 08:08:10;;;;;;;10.43;2.50;;;9.30;99.90;;;;;;6155677;23;20240;-49
2022/11/10 08:10:37;;;;;;;9.23;2.20;;;9.40;99.90;;;;;;6156107;23;20526;-50
2022/11/10 08:13:05;;;;;;;7.83;1.97;;;9.40;99.90;;;;;;6155910;23;20182;-48
2022/11/10 08:15:33;;;;;;;9.73;2.47;;;9.50;99.90;;;;;;6155719;23;20230;-49
2022/11/10 08:18:00;;;;;;;16.10;2.03;;;9.50;99.90;;;;;;6155942;23;20179;-49
2022/11/10 08:20:26;;;;;;;13.17;2.50;;;9.70;99.90;;;;;;6155952;23;20169;-49
2022/11/10 08:23:04;;;;;;;9.03;2.37;;;9.80;99.90;;;;;;6156022;23;20160;-48
2022/11/10 08:25:32;;;;;;;9.83;2.07;;;9.80;99.90;;;;;;6155637;23;20493;-48
2022/11/10 08:28:15;;;;;;;12.70;2.20;;;9.90;99.90;;;;;;6155970;23;20178;-49
2022/11/10 08:30:43;;;;;;;11.80;2.30;;;10.00;99.90;;;;;;6129610;23;20221;-48
2022/11/10 08:33:11;;;;;;;15.43;2.70;;;10.10;99.90;;;;;;6155609;23;20181;-48
2022/11/10 08:35:41;;;;;;;8.30;1.93;;;10.10;99.90;;;;;;6156007;23;20178;-50
2022/11/10 08:38:10;;;;;;;12.03;2.30;;;10.20;99.90;;;;;;6157163;23;20639;-47
2022/11/10 08:40:37;;;;;;;11.87;2.80;;;10.30;99.90;;;;;;6157500;23;20154;-49
2022/11/10 08:43:06;;;;;;;8.73;2.13;;;10.40;99.90;;;;;;6157477;23;20157;-48
2022/11/10 08:45:33;;;;;;;18.20;3.07;;;10.40;99.90;;;;;;6157732;23;20632;-48
2022/11/10 08:48:01;;;;;;;12.43;2.73;;;10.50;99.90;;;;;;6157302;23;20179;-49
2022/11/10 08:50:27;;;;;;;8.53;2.07;;;10.60;99.90;;;;;;6157745;23;20157;-48
2022/11/10 08:52:53;;;;;;;10.60;2.50;;;10.70;99.90;;;;;;6157216;23;20171;-51
2022/11/10 08:55:19;;;;;;;12.43;2.30;;;10.80;99.90;;;;;;6157153;23;20211;-48
2022/11/10 08:57:45;;;;;;;10.57;2.10;;;10.80;99.90;;;;;;6157459;23;20175;-47
2022/11/10 09:00:12;;;;;;;21.30;2.80;;;10.90;99.90;;;;;;6131729;23;20475;-50
2022/11/10 09:02:38;;;;;;;13.47;2.57;;;11.00;99.90;;;;;;6157092;23;20603;-50
2022/11/10 09:05:04;;;;;;;18.80;2.70;;;11.10;99.90;;;;;;6157859;23;20241;-50
2022/11/10 09:07:30;;;;;;;6.87;2.17;;;11.10;99.90;;;;;;6157570;23;20551;-48
2022/11/10 09:09:55;;;;;;;14.50;2.43;;;11.20;99.90;;;;;;6131182;23;20165;-50
2022/11/10 09:12:21;;;;;;;13.90;2.23;;;11.30;99.90;;;;;;6157234;23;20163;-49
2022/11/10 09:14:47;;;;;;;14.57;2.90;;;11.40;99.90;;;;;;6131204;23;20493;-51
2022/11/10 09:17:12;;;;;;;15.60;3.13;;;11.50;99.90;;;;;;6157267;23;20153;-50
2022/11/10 09:19:38;;;;;;;14.60;2.73;;;11.50;99.90;;;;;;6158062;23;20616;-50
2022/11/10 09:22:04;;;;;;;12.73;2.83;;;11.70;99.90;;;;;;6157669;23;20160;-49
2022/11/10 09:24:29;;;;;;;14.83;2.93;;;11.80;99.90;;;;;;6157046;23;20161;-50
2022/11/10 09:26:55;;;;;;;8.23;1.87;;;11.80;99.90;;;;;;6157444;23;20540;-50
2022/11/10 09:29:21;;;;;;;9.13;2.20;;;12.00;99.90;;;;;;6156969;23;20184;-43
2022/11/10 09:31:47;;;;;;;14.10;2.50;;;12.00;99.90;;;;;;6157208;23;20213;-49
2022/11/10 09:34:13;;;;;;;7.53;2.47;;;12.10;99.90;;;;;;6156924;23;20311;-50
2022/11/10 09:36:39;;;;;;;9.17;2.30;;;12.10;99.90;;;;;;6157528;23;20168;-49
2022/11/10 09:39:05;;;;;;;9.33;2.10;;;12.20;99.90;;;;;;6157882;23;20261;-48
2022/11/10 09:41:31;;;;;;;10.70;1.87;;;12.30;99.90;;;;;;6156930;23;20158;-49
2022/11/10 09:44:10;;;;;;;14.53;2.30;;;12.30;99.90;;;;;;6157580;23;20183;-48
2022/11/10 09:46:43;;;;;;;15.67;2.83;;;12.50;99.90;;;;;;6156923;23;20156;-47
2022/11/10 09:49:15;;;;;;;9.30;1.97;;;12.50;99.90;;;;;;6130561;23;20185;-47
2022/11/10 09:51:42;;;;;;;12.03;1.67;;;12.60;99.90;;;;;;6157094;23;20158;-48
2022/11/10 09:54:26;;;;;;;18.83;2.23;;;12.70;99.90;;;;;;6156826;23;20212;-48
2022/11/10 09:56:52;;;;;;;11.03;1.90;;;12.80;99.90;;;;;;6156966;23;20588;-50
2022/11/10 09:59:26;;;;;;;13.77;2.30;;;12.80;99.90;;;;;;6156630;23;20184;-50
2022/11/10 10:02:21;;;;;;;12.20;3.03;;;12.80;99.90;;;;;;6156902;23;20487;-49
2022/11/10 10:05:06;;;;;;;16.13;2.33;;;12.90;99.90;;;;;;6103976;23;20193;-49
2022/11/10 10:07:44;;;;;;;8.87;2.30;;;13.00;99.90;;;;;;6156995;23;20184;-48
2022/11/10 10:10:29;;;;;;;13.40;3.10;;;13.10;99.90;;;;;;6156521;23;20600;-50
2022/11/10 10:13:22;;;;;;;8.47;2.17;;;13.20;99.90;;;;;;6156501;23;20174;-48
2022/11/10 10:16:15;;;;;;;11.87;2.03;;;13.20;99.90;;;;;;6157236;23;20152;-48
2022/11/10 10:19:08;;;;;;;7.03;1.67;;;13.30;99.90;;;;;;6156740;23;20174;-50
2022/11/10 10:21:57;;;;;;;10.27;2.03;;;13.40;99.90;;;;;;6156429;23;20196;-49
2022/11/10 10:24:31;;;;;;;7.83;1.80;;;13.40;99.90;;;;;;6156778;23;20157;-49
2022/11/10 10:26:59;;;;;;;9.50;2.03;;;13.50;99.90;;;;;;6156491;23;20138;-48
2022/11/10 10:29:34;;;;;;;7.80;1.70;;;13.50;99.90;;;;;;6154686;23;20225;-50
2022/11/10 10:32:00;;;;;;;9.93;1.60;;;13.60;99.90;;;;;;6130218;23;20501;-50
2022/11/10 10:34:30;;;;;;;11.30;2.03;;;13.70;99.90;;;;;;6156504;23;20185;-50
2022/11/10 10:36:56;;;;;;;12.67;2.30;;;13.70;99.90;;;;;;6154901;23;20157;-50
2022/11/10 10:39:36;;;;;;;9.73;2.13;;;13.80;99.90;;;;;;6156554;23;20277;-49
2022/11/10 10:42:06;;;;;;;6.10;1.50;;;13.80;99.90;;;;;;6156611;23;20153;-51
2022/11/10 10:44:31;;;;;;;9.10;2.00;;;13.90;99.90;;;;;;6157376;23;20181;-51
2022/11/10 10:46:59;;;;;;;7.43;1.73;;;13.90;99.90;;;;;;6156690;23;20216;-49
2022/11/10 10:49:32;;;;;;;12.37;2.13;;;14.00;99.90;;;;;;6156707;23;20188;-48
2022/11/10 10:52:05;;;;;;;13.80;2.50;;;14.10;99.90;;;;;;6156687;23;20342;-50
2022/11/10 10:54:33;;;;;;;8.70;1.67;;;14.20;99.90;;;;;;6130168;23;20658;-50
2022/11/10 10:57:04;;;;;;;6.73;1.40;;;14.20;99.90;;;;;;6156435;23;20169;-50
2022/11/10 10:59:30;;;;;;;8.60;1.70;;;14.30;99.90;;;;;;6155835;23;20495;-51
2022/11/10 11:01:56;;;;;;;10.63;1.73;;;14.30;99.90;;;;;;6156490;23;20479;-51
2022/11/10 11:04:27;;;;;;;7.23;1.63;;;14.40;99.90;;;;;;6156766;23;20225;-51
2022/11/10 11:06:59;;;;;;;10.67;1.63;;;14.50;99.90;;;;;;6156339;23;20193;-49
2022/11/10 11:09:26;;;;;;;13.13;1.87;;;14.50;99.90;;;;;;6156636;23;20182;-50
2022/11/10 11:12:19;;;;;;;9.93;1.97;;;14.60;99.90;;;;;;6156325;23;20651;-51
2022/11/10 11:14:45;;;;;;;11.10;1.70;;;14.70;99.90;;;;;;6156449;23;20568;-49
2022/11/10 11:17:20;;;;;;;6.97;1.23;;;14.80;99.90;;;;;;6156280;23;20164;-49
2022/11/10 11:19:46;;;;;;;8.00;1.60;;;14.90;99.90;;;;;;6156452;23;20580;-49
2022/11/10 11:22:26;;;;;;;7.53;1.90;;;14.90;99.90;;;;;;6155930;23;20624;-48
2022/11/10 11:25:30;;;;;;;9.23;1.47;;;15.00;99.90;;;;;;6156385;23;20146;-49
2022/11/10 11:28:05;;;;;;;6.13;1.80;;;15.00;99.90;;;;;;6156228;23;20180;-48
2022/11/10 11:30:48;;;;;;;8.93;1.80;;;15.10;99.90;;;;;;6156262;23;20148;-50
2022/11/10 11:33:36;;;;;;;5.93;1.40;;;15.20;99.90;;;;;;6156129;23;20244;-51
2022/11/10 11:36:40;;;;;;;8.33;1.43;;;15.20;99.90;;;;;;6159553;23;20138;-49
2022/11/10 11:39:23;;;;;;;4.77;1.10;;;15.20;99.90;;;;;;6163480;23;20176;-52
2022/11/10 11:42:15;;;;;;;8.53;1.77;;;15.30;99.90;;;;;;6163737;23;20142;-49
2022/11/10 11:44:49;;;;;;;10.57;1.83;;;15.30;99.90;;;;;;6140587;23;20177;-49
2022/11/10 11:47:40;;;;;;;10.23;1.63;;;15.40;99.90;;;;;;6162656;23;20245;-50
2022/11/10 11:50:14;;;;;;;7.37;1.80;;;15.40;99.90;;;;;;6160524;23;20161;-50
2022/11/10 11:53:23;;;;;;;7.77;1.50;;;15.40;99.90;;;;;;6161180;23;20176;-50
2022/11/10 11:55:54;;;;;;;9.73;2.07;;;15.50;99.90;;;;;;6159558;23;20165;-49
2022/11/10 11:58:35;;;;;;;5.13;1.20;;;15.50;99.90;;;;;;6158971;23;20170;-51
2022/11/10 12:01:40;;;;;;;9.13;1.50;;;15.60;99.90;;;;;;6159773;23;20149;-50
2022/11/10 12:04:19;;;;;;;10.17;1.47;;;15.60;99.90;;;;;;6159343;23;20142;-51
2022/11/10 12:06:48;;;;;;;9.93;2.03;;;15.60;99.90;;;;;;6158428;23;20539;-50
2022/11/10 12:09:26;;;;;;;10.30;1.93;;;15.70;99.90;;;;;;6158162;23;20182;-49
2022/11/10 12:12:43;;;;;;;8.03;1.80;;;15.70;99.90;;;;;;6159191;23;20146;-49
2022/11/10 12:15:23;;;;;;;9.13;1.10;;;15.80;99.90;;;;;;6094112;23;20249;-50
2022/11/10 12:18:10;;;;;;;5.97;1.17;;;15.80;99.90;;;;;;6159213;23;20174;-51
2022/11/10 12:20:53;;;;;;;6.53;2.00;;;15.80;99.90;;;;;;6158802;23;20156;-50
2022/11/10 12:23:18;;;;;;;10.33;1.67;;;15.80;99.90;;;;;;6159280;23;20146;-49
2022/11/10 12:25:46;;;;;;;6.33;1.27;;;15.90;99.90;;;;;;6158598;23;20204;-50
2022/11/10 12:28:23;;;;;;;5.83;1.03;;;15.90;99.90;;;;;;6158955;23;20197;-51
2022/11/10 12:30:55;;;;;;;3.93;1.43;;;16.00;99.90;;;;;;6159008;23;20142;-50
2022/11/10 12:33:35;;;;;;;8.37;1.87;;;16.00;99.90;;;;;;6158676;23;20169;-48
2022/11/10 12:36:11;;;;;;;4.67;1.60;;;16.10;99.90;;;;;;6158986;23;20146;-50
2022/11/10 12:38:46;;;;;;;8.37;1.63;;;16.10;99.90;;;;;;6158185;23;20169;-51
2022/11/10 12:41:15;;;;;;;6.13;1.50;;;16.20;99.90;;;;;;6158550;23;20169;-52
2022/11/10 12:44:11;;;;;;;6.33;1.50;;;16.20;99.90;;;;;;6158404;23;20162;-51
2022/11/10 12:46:37;;;;;;;6.87;1.97;;;16.20;99.90;;;;;;6116635;23;20170;-51
2022/11/10 12:49:18;;;;;;;10.30;1.70;;;16.20;99.90;;;;;;6157792;23;20174;-50
2022/11/10 12:51:49;;;;;;;7.50;1.60;;;16.20;99.90;;;;;;6158021;23;20142;-45
2022/11/10 12:54:16;;;;;;;5.10;1.40;;;16.30;99.90;;;;;;6157328;23;20200;-46
2022/11/10 12:56:48;;;;;;;4.97;1.37;;;16.30;99.90;;;;;;6157259;23;20142;-45
2022/11/10 12:59:19;;;;;;;3.90;1.30;;;16.20;99.90;;;;;;6157533;23;20515;-45
2022/11/10 13:01:47;;;;;;;7.83;1.50;;;16.30;99.90;;;;;;6131175;23;20216;-45
2022/11/10 13:04:15;;;;;;;5.47;1.20;;;16.20;99.90;;;;;;6157236;23;20158;-47
2022/11/10 13:07:05;;;;;;;6.10;1.50;;;16.20;99.90;;;;;;6157097;23;20166;-47
2022/11/10 13:09:33;;;;;;;7.33;1.30;;;16.20;99.90;;;;;;6142381;23;20165;-47
2022/11/10 13:12:14;;;;;;;12.67;1.77;;;16.20;99.90;;;;;;6157003;23;20161;-48